createdAt,value
2022-11-20T00:01:30.391Z,98138.03
2022-11-20T00:03:59.085Z,98140.88
2022-11-20T00:06:28.064Z,98135.56
2022-11-20T00:08:58.256Z,98135.56
2022-11-20T00:11:27.758Z,98136.78
2022-11-20T00:13:58.120Z,98128.63
2022-11-20T00:16:27.331Z,98131.66
2022-11-20T00:18:55.330Z,98128.19
2022-11-20T00:21:25.269Z,98120.22
2022-11-20T00:23:55.393Z,98124.50
2022-11-20T00:26:26.269Z,98126.53
2022-11-20T00:28:58.947Z,98129.19
2022-11-20T00:31:26.904Z,98126.53
2022-11-20T00:33:54.632Z,98123.88
2022-11-20T00:36:24.628Z,98127.56
2022-11-20T00:38:53.431Z,98128.56
2022-11-20T00:41:21.522Z,98120.00
2022-11-20T00:43:49.161Z,98112.63
2022-11-20T00:46:19.095Z,98118.34
2022-11-20T00:48:47.041Z,98120.81
2022-11-20T00:51:17.196Z,98118.34
2022-11-20T00:53:45.132Z,98119.16
2022-11-20T00:56:15.208Z,98111.41
2022-11-20T00:58:44.268Z,98111.59
2022-11-20T01:01:17.858Z,98109.75
2022-11-20T01:03:47.793Z,98100.78
2022-11-20T01:06:18.291Z,98096.66
2022-11-20T01:08:46.900Z,98102.81
2022-11-20T01:11:17.695Z,98098.50
2022-11-20T01:13:47.083Z,98106.47
2022-11-20T01:16:15.948Z,98102.38
2022-11-20T01:18:45.980Z,98099.91
2022-11-20T01:21:19.768Z,98098.09
2022-11-20T01:23:48.600Z,98099.91
2022-11-20T01:26:22.451Z,98090.94
2022-11-20T01:28:50.087Z,98093.78
2022-11-20T01:31:23.899Z,98092.97
2022-11-20T01:33:54.045Z,98096.63
2022-11-20T01:36:23.603Z,98086.00
2022-11-20T01:38:55.783Z,98093.34
2022-11-20T01:41:43.352Z,98088.03
2022-11-20T01:44:15.863Z,98076.59
2022-11-20T01:47:00.148Z,98073.13
2022-11-20T01:50:15.188Z,98066.16
2022-11-20T01:52:51.851Z,98068.81
2022-11-20T01:55:26.772Z,98066.16
2022-11-20T01:57:54.443Z,98060.25
2022-11-20T02:00:21.928Z,98070.03
2022-11-20T02:02:54.663Z,98066.16
2022-11-20T02:05:48.885Z,98068.22
2022-11-20T02:08:17.032Z,98071.06
2022-11-20T02:10:45.135Z,98071.88
2022-11-20T02:13:31.284Z,98072.91
2022-11-20T02:15:58.893Z,98079.03
2022-11-20T02:18:27.105Z,98080.25
2022-11-20T02:21:11.750Z,98081.88
2022-11-20T02:23:45.859Z,98082.91
2022-11-20T02:26:16.223Z,98095.16
2022-11-20T02:28:43.793Z,98094.53
2022-11-20T02:31:11.003Z,98093.53
2022-11-20T02:33:38.593Z,98094.94
2022-11-20T02:36:06.441Z,98100.25
2022-11-20T02:38:34.034Z,98100.88
2022-11-20T02:41:01.241Z,98102.69
2022-11-20T02:43:28.764Z,98100.25
2022-11-20T02:45:55.971Z,98102.69
2022-11-20T02:48:25.307Z,98094.94
2022-11-20T02:50:52.695Z,98098.59
2022-11-20T02:53:20.457Z,98100.44
2022-11-20T02:55:47.715Z,98102.28
2022-11-20T02:58:15.247Z,98096.16
2022-11-20T03:00:43.392Z,98091.03
2022-11-20T03:03:11.023Z,98096.16
2022-11-20T03:05:38.264Z,98096.34
2022-11-20T03:08:05.847Z,98086.72
2022-11-20T03:10:33.081Z,98084.06
2022-11-20T03:13:00.679Z,98092.03
2022-11-20T03:15:27.869Z,98102.03
2022-11-20T03:17:56.414Z,98095.09
2022-11-20T03:20:24.175Z,98089.78
2022-11-20T03:22:51.889Z,98101.03
2022-11-20T03:25:19.159Z,98091.41
2022-11-20T03:27:46.634Z,98100.22
2022-11-20T03:30:14.713Z,98086.31
2022-11-20T03:32:42.607Z,98094.47
2022-11-20T03:35:10.743Z,98090.81
2022-11-20T03:37:38.300Z,98089.16
2022-11-20T03:40:06.431Z,98089.16
2022-11-20T03:42:46.044Z,98096.13
2022-11-20T03:45:18.075Z,98095.50
2022-11-20T03:47:46.591Z,98092.00
2022-11-20T03:50:14.857Z,98092.00
2022-11-20T03:52:42.965Z,98083.41
2022-11-20T03:55:10.675Z,98091.59
2022-11-20T03:57:38.640Z,98085.44
2022-11-20T04:00:06.508Z,98091.59
2022-11-20T04:02:34.104Z,98089.94
2022-11-20T04:05:01.369Z,98090.97
2022-11-20T04:07:28.993Z,98083.81
2022-11-20T04:09:56.232Z,98086.66
2022-11-20T04:12:23.800Z,98083.00
2022-11-20T04:14:51.031Z,98082.38
2022-11-20T04:17:18.586Z,98093.63
2022-11-20T04:19:45.989Z,98078.69
2022-11-20T04:22:13.575Z,98072.75
2022-11-20T04:24:40.799Z,98071.75
2022-11-20T04:27:08.584Z,98058.47
2022-11-20T04:29:36.176Z,98064.59
2022-11-20T04:32:03.724Z,98055.19
2022-11-20T04:34:30.971Z,98056.19
2022-11-20T04:36:58.606Z,98058.84
2022-11-20T04:39:25.834Z,98054.38
2022-11-20T04:42:13.795Z,98051.91
2022-11-20T04:44:41.020Z,98056.41
2022-11-20T04:47:08.548Z,98046.78
2022-11-20T04:49:36.089Z,98048.63
2022-11-20T04:52:03.684Z,98046.78
2022-11-20T04:54:30.951Z,98043.50
2022-11-20T04:56:58.641Z,98032.09
2022-11-20T04:59:25.908Z,98036.38
2022-11-20T05:01:53.653Z,98029.44
2022-11-20T05:04:21.193Z,98033.72
2022-11-20T05:06:50.113Z,98028.63
2022-11-20T05:09:17.347Z,98035.75
2022-11-20T05:11:47.088Z,98031.47
2022-11-20T05:14:17.656Z,98028.81
2022-11-20T05:16:45.362Z,98026.16
2022-11-20T05:19:12.857Z,98026.16
2022-11-20T05:21:40.540Z,98015.94
2022-11-20T05:24:07.974Z,98009.59
2022-11-20T05:26:35.616Z,98015.94
2022-11-20T05:29:03.013Z,98007.97
2022-11-20T05:31:30.684Z,98002.03
2022-11-20T05:33:58.399Z,98007.34
2022-11-20T05:36:26.340Z,98002.84
2022-11-20T05:38:58.071Z,98008.16
2022-11-20T05:41:27.563Z,98005.69
2022-11-20T05:43:54.785Z,98010.00
2022-11-20T05:46:28.621Z,98016.31
2022-11-20T05:48:58.152Z,98006.53
2022-11-20T05:51:27.008Z,98004.06
2022-11-20T05:53:54.435Z,98006.72
2022-11-20T05:56:22.703Z,98010.38
2022-11-20T05:58:50.506Z,98015.69
2022-11-20T06:01:22.493Z,98012.22
2022-11-20T06:03:51.404Z,98011.38
2022-11-20T06:06:19.981Z,98003.41
2022-11-20T06:08:47.764Z,98006.06
2022-11-20T06:11:16.618Z,98005.44
2022-11-20T06:13:44.463Z,98008.09
2022-11-20T06:16:14.260Z,98018.72
2022-11-20T06:18:41.824Z,98016.25
2022-11-20T06:21:15.748Z,98015.25
2022-11-20T06:23:43.368Z,98015.44
2022-11-20T06:26:20.236Z,98020.75
2022-11-20T06:28:47.859Z,98026.06
2022-11-20T06:31:17.971Z,98024.41
2022-11-20T06:33:45.529Z,98024.41
2022-11-20T06:36:14.831Z,98024.63
2022-11-20T06:38:42.669Z,98022.78
2022-11-20T06:41:15.941Z,98021.16
2022-11-20T06:43:43.346Z,98013.19
2022-11-20T06:46:12.609Z,98004.38
2022-11-20T06:48:40.835Z,98003.56
2022-11-20T06:51:09.550Z,98000.91
2022-11-20T06:53:37.839Z,97992.94
2022-11-20T06:56:06.768Z,97996.63
2022-11-20T06:58:35.608Z,97994.59
2022-11-20T07:01:08.640Z,97991.31
2022-11-20T07:03:36.152Z,97987.63
2022-11-20T07:06:04.582Z,97988.44
2022-11-20T07:08:32.919Z,97991.31
2022-11-20T07:11:02.373Z,97981.50
2022-11-20T07:13:30.431Z,97987.63
2022-11-20T07:16:03.604Z,97985.59
2022-11-20T07:18:31.194Z,97979.47
2022-11-20T07:21:07.867Z,97978.66
2022-11-20T07:23:35.455Z,97985.59
2022-11-20T07:26:10.904Z,97982.94
2022-11-20T07:28:38.044Z,97977.44
2022-11-20T07:31:07.735Z,97988.88
2022-11-20T07:33:35.206Z,97994.19
2022-11-20T07:36:03.042Z,97993.38
2022-11-20T07:38:30.315Z,97998.69
2022-11-20T07:40:58.979Z,97996.84
2022-11-20T07:43:26.345Z,97996.84
2022-11-20T07:45:59.361Z,97997.84
2022-11-20T07:48:26.815Z,97994.81
2022-11-20T07:50:57.874Z,97994.19
2022-11-20T07:53:25.404Z,97990.50
2022-11-20T07:55:53.411Z,97986.84
2022-11-20T07:58:21.603Z,97986.03
2022-11-20T08:00:49.274Z,97992.16
2022-11-20T08:03:23.195Z,97986.84
2022-11-20T08:05:52.775Z,97987.47
2022-11-20T08:08:22.019Z,97993.78
2022-11-20T08:10:49.643Z,97996.44
2022-11-20T08:13:35.331Z,98009.72
2022-11-20T08:16:03.070Z,98003.41
2022-11-20T08:18:32.193Z,98004.25
2022-11-20T08:21:05.021Z,98001.75
2022-11-20T08:23:34.361Z,97998.09
2022-11-20T08:26:01.999Z,98003.25
2022-11-20T08:28:29.411Z,98003.25
2022-11-20T08:31:01.817Z,98007.72
2022-11-20T08:33:30.833Z,98013.66
2022-11-20T08:36:03.683Z,98014.88
2022-11-20T08:38:32.076Z,98013.88
2022-11-20T08:41:20.486Z,98026.31
2022-11-20T08:43:48.121Z,98013.88
2022-11-20T08:46:15.735Z,98013.41
2022-11-20T08:48:43.109Z,98025.03
2022-11-20T08:51:12.351Z,98017.06
2022-11-20T08:53:40.561Z,98008.28
2022-11-20T08:56:08.709Z,98022.38
2022-11-20T08:59:01.917Z,98016.06
2022-11-20T09:01:24.538Z,98010.13
2022-11-20T09:03:52.007Z,97997.47
2022-11-20T09:06:19.666Z,97996.44
2022-11-20T09:08:46.886Z,97997.47
2022-11-20T09:11:14.461Z,98005.06
2022-11-20T09:13:41.753Z,98004.25
2022-11-20T09:16:09.900Z,98010.38
2022-11-20T09:18:38.280Z,98016.31
2022-11-20T09:21:14.700Z,98008.34
2022-11-20T09:23:42.004Z,98008.09
2022-11-20T09:26:14.732Z,98013.19
2022-11-20T09:28:42.281Z,98007.63
2022-11-20T09:31:17.909Z,98003.97
2022-11-20T09:33:45.268Z,97997.84
2022-11-20T09:36:13.675Z,97999.75
2022-11-20T09:38:40.980Z,97997.13
2022-11-20T09:41:29.294Z,97999.63
2022-11-20T09:44:05.797Z,98001.31
2022-11-20T09:46:47.939Z,97999.25
2022-11-20T09:49:32.651Z,98001.31
2022-11-20T09:52:22.912Z,97996.03
2022-11-20T09:54:51.419Z,97990.72
2022-11-20T09:57:24.295Z,97988.28
2022-11-20T09:59:57.168Z,97982.56
2022-11-20T10:02:25.099Z,97970.72
2022-11-20T10:05:09.585Z,97974.97
2022-11-20T10:08:10.728Z,97973.09
2022-11-20T10:10:50.792Z,97974.91
2022-11-20T10:13:39.421Z,97973.66
2022-11-20T10:16:15.830Z,97970.78
2022-11-20T10:19:03.316Z,97966.91
2022-11-20T10:21:53.762Z,97963.59
2022-11-20T10:24:28.342Z,97964.81
2022-11-20T10:27:34.155Z,97953.75
2022-11-20T10:30:12.241Z,97948.84
2022-11-20T10:32:42.390Z,97961.50
2022-11-20T10:35:35.267Z,97950.56
2022-11-20T10:38:46.940Z,97951.97
2022-11-20T10:41:26.908Z,97944.38
2022-11-20T10:44:36.581Z,97934.13
2022-11-20T10:47:15.390Z,97931.91
2022-11-20T10:49:46.569Z,97932.94
2022-11-20T10:52:39.336Z,97926.38
2022-11-20T10:55:13.117Z,97933.72
2022-11-20T10:58:07.947Z,97932.06
2022-11-20T11:00:35.268Z,97934.09
2022-11-20T11:03:04.002Z,97922.84
2022-11-20T11:05:41.150Z,97923.88
2022-11-20T11:08:15.932Z,97911.59
2022-11-20T11:10:46.046Z,97907.34
2022-11-20T11:13:26.046Z,97916.31
2022-11-20T11:15:54.141Z,97917.31
2022-11-20T11:18:31.009Z,97923.31
2022-11-20T11:21:02.056Z,97918.94
2022-11-20T11:23:37.233Z,97921.84
2022-11-20T11:26:07.912Z,97921.25
2022-11-20T11:28:35.716Z,97919.22
2022-11-20T11:31:02.998Z,97907.78
2022-11-20T11:33:34.670Z,97919.84
2022-11-20T11:36:05.215Z,97918.84
2022-11-20T11:38:39.552Z,97917.22
2022-11-20T11:41:13.756Z,97920.88
2022-11-20T11:44:11.123Z,97919.44
2022-11-20T11:46:40.328Z,97910.66
2022-11-20T11:49:16.124Z,97911.91
2022-11-20T11:51:51.296Z,97910.69
2022-11-20T11:54:25.178Z,97905.34
2022-11-20T11:56:53.980Z,97892.66
2022-11-20T11:59:46.740Z,97886.72
2022-11-20T12:02:30.467Z,97873.44
2022-11-20T12:05:14.461Z,97868.91
2022-11-20T12:08:05.931Z,97870.97
2022-11-20T12:10:54.930Z,97878.75
2022-11-20T12:13:59.168Z,97876.69
2022-11-20T12:16:26.756Z,97879.34
2022-11-20T12:18:54.140Z,97875.88
2022-11-20T12:21:25.012Z,97882.81
2022-11-20T12:23:52.276Z,97873.84
2022-11-20T12:26:43.078Z,97880.97
2022-11-20T12:29:28.570Z,97876.69
2022-11-20T12:32:16.081Z,97859.09
2022-11-20T12:34:56.257Z,97863.19
2022-11-20T12:37:29.725Z,97851.72
2022-11-20T12:40:13.030Z,97850.91
2022-11-20T12:43:20.887Z,97846.41
2022-11-20T12:46:32.606Z,97834.75
2022-11-20T12:49:25.014Z,97827.16
2022-11-20T12:52:13.672Z,97820.63
2022-11-20T12:54:59.157Z,97809.38
2022-11-20T12:57:35.464Z,97812.84
2022-11-20T13:00:14.780Z,97809.59
2022-11-20T13:03:01.129Z,97807.13
2022-11-20T13:05:44.205Z,97806.31
2022-11-20T13:08:39.929Z,97808.97
2022-11-20T13:11:10.404Z,97813.50
2022-11-20T13:13:52.664Z,97813.25
2022-11-20T13:16:35.160Z,97799.75
2022-11-20T13:19:04.792Z,97805.72
2022-11-20T13:21:44.841Z,97797.31
2022-11-20T13:24:28.679Z,97803.84
2022-11-20T13:27:14.764Z,97803.25
2022-11-20T13:29:45.880Z,97802.25
2022-11-20T13:32:21.305Z,97805.09
2022-11-20T13:34:57.700Z,97802.03
2022-11-20T13:37:29.819Z,97802.25
2022-11-20T13:40:09.241Z,97796.91
2022-11-20T13:42:40.741Z,97790.78
2022-11-20T13:45:32.273Z,97790.78
2022-11-20T13:48:05.804Z,97788.53
2022-11-20T13:50:47.386Z,97780.16
2022-11-20T13:53:31.669Z,97781.59
2022-11-20T13:56:11.778Z,97778.09
2022-11-20T13:59:09.618Z,97779.94
2022-11-20T14:01:40.457Z,97774.41
2022-11-20T14:04:16.537Z,97781.34
2022-11-20T14:06:46.776Z,97777.69
2022-11-20T14:09:27.696Z,97775.22
2022-11-20T14:11:55.948Z,97775.03
2022-11-20T14:14:26.256Z,97781.97
2022-11-20T14:17:06.904Z,97771.97
2022-11-20T14:19:35.170Z,97780.97
2022-11-20T14:22:19.968Z,97772.38
2022-11-20T14:25:19.287Z,97755.00
2022-11-20T14:27:56.214Z,97755.81
2022-11-20T14:30:27.419Z,97760.09
2022-11-20T14:33:01.176Z,97756.81
2022-11-20T14:35:32.408Z,97755.19
2022-11-20T14:38:01.372Z,97758.47
2022-11-20T14:40:36.611Z,97765.63
2022-11-20T14:43:17.776Z,97755.19
2022-11-20T14:45:49.882Z,97756.81
2022-11-20T14:48:17.348Z,97752.34
2022-11-20T14:50:46.131Z,97762.13
2022-11-20T14:53:23.828Z,97764.78
2022-11-20T14:56:00.620Z,97767.06
2022-11-20T14:58:34.379Z,97758.88
2022-11-20T15:01:05.470Z,97754.03
2022-11-20T15:03:41.483Z,97742.16
2022-11-20T15:06:12.932Z,97746.69
2022-11-20T15:08:51.938Z,97728.31
2022-11-20T15:11:24.073Z,97732.41
2022-11-20T15:13:51.893Z,97734.88
2022-11-20T15:16:21.909Z,97725.06
2022-11-20T15:18:49.334Z,97722.22
2022-11-20T15:21:22.074Z,97722.81
2022-11-20T15:23:49.790Z,97723.44
2022-11-20T15:26:27.218Z,97721.19
2022-11-20T15:28:54.769Z,97728.97
2022-11-20T15:31:24.325Z,97719.78
2022-11-20T15:33:51.974Z,97729.19
2022-11-20T15:36:19.585Z,97726.72
2022-11-20T15:38:47.137Z,97727.75
2022-11-20T15:41:14.787Z,97725.31
2022-11-20T15:43:42.120Z,97716.91
2022-11-20T15:46:16.231Z,97723.06
2022-11-20T15:48:50.346Z,97730.81
2022-11-20T15:51:32.583Z,97733.22
2022-11-20T15:54:00.348Z,97730.38
2022-11-20T15:56:27.960Z,97724.88
2022-11-20T15:58:55.598Z,97722.41
2022-11-20T16:01:23.544Z,97714.41
2022-11-20T16:03:50.864Z,97713.16
2022-11-20T16:06:18.440Z,97727.03
2022-11-20T16:08:45.751Z,97732.78
2022-11-20T16:11:15.434Z,97720.47
2022-11-20T16:14:01.250Z,97718.84
2022-11-20T16:16:40.146Z,97721.69
2022-11-20T16:19:10.556Z,97726.59
2022-11-20T16:21:38.515Z,97716.56
2022-11-20T16:24:07.191Z,97731.50
2022-11-20T16:26:35.757Z,97724.13
2022-11-20T16:29:06.095Z,97732.91
2022-11-20T16:31:34.061Z,97727.41
2022-11-20T16:34:10.199Z,97729.03
2022-11-20T16:36:42.133Z,97728.59
2022-11-20T16:39:09.387Z,97723.28
2022-11-20T16:41:37.331Z,97725.75
2022-11-20T16:44:10.212Z,97721.25
2022-11-20T16:46:38.838Z,97710.59
2022-11-20T16:49:13.824Z,97714.06
2022-11-20T16:51:41.794Z,97712.22
2022-11-20T16:54:10.138Z,97717.34
2022-11-20T16:56:39.134Z,97717.97
2022-11-20T16:59:07.432Z,97709.16
2022-11-20T17:01:38.616Z,97718.78
2022-11-20T17:04:07.230Z,97717.34
2022-11-20T17:06:40.841Z,97718.38
2022-11-20T17:09:10.934Z,97727.38
2022-11-20T17:11:38.861Z,97719.38
2022-11-20T17:14:08.993Z,97715.13
2022-11-20T17:16:37.844Z,97716.94
2022-11-20T17:19:05.417Z,97709.78
2022-11-20T17:21:36.278Z,97714.88
2022-11-20T17:24:09.147Z,97716.72
2022-11-20T17:26:38.969Z,97708.75
2022-11-20T17:29:10.035Z,97712.22
2022-11-20T17:31:38.641Z,97702.44
2022-11-20T17:34:08.117Z,97697.50
2022-11-20T17:36:39.546Z,97696.50
2022-11-20T17:39:09.451Z,97704.84
2022-11-20T17:41:37.114Z,97696.25
2022-11-20T17:44:04.435Z,97695.47
2022-11-20T17:46:35.093Z,97693.84
2022-11-20T17:49:02.808Z,97684.00
2022-11-20T17:51:32.558Z,97685.22
2022-11-20T17:54:02.297Z,97686.88
2022-11-20T17:56:53.278Z,97678.91
2022-11-20T17:59:21.618Z,97673.38
2022-11-20T18:01:49.476Z,97672.56
2022-11-20T18:04:17.404Z,97669.91
2022-11-20T18:06:44.984Z,97668.88
2022-11-20T18:09:12.839Z,97677.88
2022-11-20T18:11:42.266Z,97683.19
2022-11-20T18:14:32.759Z,97683.19
2022-11-20T18:17:08.905Z,97677.03
2022-11-20T18:19:44.958Z,97666.59
2022-11-20T18:22:20.142Z,97669.28
2022-11-20T18:24:47.748Z,97673.97
2022-11-20T18:27:19.289Z,97670.50
2022-11-20T18:29:52.210Z,97670.50
2022-11-20T18:32:22.014Z,97673.97
2022-11-20T18:34:50.430Z,97672.94
2022-11-20T18:37:18.175Z,97666.00
2022-11-20T18:39:45.582Z,97676.63
2022-11-20T18:42:34.351Z,97679.50
2022-11-20T18:45:04.256Z,97675.44
2022-11-20T18:47:36.605Z,97678.25
2022-11-20T18:50:06.452Z,97676.63
2022-11-20T18:52:38.802Z,97678.25
2022-11-20T18:55:07.302Z,97675.59
2022-11-20T18:57:35.700Z,97675.59
2022-11-20T19:00:08.864Z,97680.53
2022-11-20T19:02:42.307Z,97672.56
2022-11-20T19:05:12.490Z,97674.78
2022-11-20T19:07:40.671Z,97672.34
2022-11-20T19:10:09.468Z,97674.19
2022-11-20T19:12:37.114Z,97664.34
2022-11-20T19:15:04.702Z,97665.03
2022-11-20T19:17:33.601Z,97660.97
2022-11-20T19:20:01.036Z,97666.53
2022-11-20T19:22:29.654Z,97667.59
2022-11-20T19:24:57.087Z,97668.63
2022-11-20T19:27:24.717Z,97665.19
2022-11-20T19:29:52.022Z,97667.84
2022-11-20T19:32:19.744Z,97672.75
2022-11-20T19:34:47.170Z,97669.91
2022-11-20T19:37:14.852Z,97678.50
2022-11-20T19:39:42.136Z,97674.81
2022-11-20T19:42:09.780Z,97672.59
2022-11-20T19:44:37.057Z,97678.53
2022-11-20T19:47:08.914Z,97676.06
2022-11-20T19:49:41.744Z,97671.16
2022-11-20T19:52:09.592Z,97675.28
2022-11-20T19:54:37.052Z,97672.81
2022-11-20T19:57:04.761Z,97670.78
2022-11-20T19:59:35.634Z,97672.00
2022-11-20T20:02:03.909Z,97664.25
2022-11-20T20:04:31.403Z,97666.25
2022-11-20T20:06:59.252Z,97658.91
2022-11-20T20:09:27.667Z,97667.06
2022-11-20T20:11:55.359Z,97659.53
2022-11-20T20:14:22.651Z,97670.16
2022-11-20T20:16:50.234Z,97662.56
2022-11-20T20:19:17.861Z,97660.94
2022-11-20T20:21:47.691Z,97665.66
2022-11-20T20:24:15.005Z,97670.34
2022-11-20T20:26:42.666Z,97671.34
2022-11-20T20:29:09.977Z,97667.06
2022-11-20T20:31:37.603Z,97664.41
2022-11-20T20:34:05.966Z,97665.66
2022-11-20T20:36:33.691Z,97662.56
2022-11-20T20:39:02.729Z,97668.91
2022-11-20T20:41:30.951Z,97667.47
2022-11-20T20:44:16.772Z,97661.34
2022-11-20T20:46:44.407Z,97665.03
2022-11-20T20:49:12.149Z,97659.09
2022-11-20T20:51:39.766Z,97659.09
2022-11-20T20:54:07.414Z,97647.88
2022-11-20T20:56:35.242Z,97655.22
2022-11-20T20:59:03.803Z,97660.53
2022-11-20T21:01:31.557Z,97671.34
2022-11-20T21:03:59.008Z,97661.75
2022-11-20T21:06:26.804Z,97666.22
2022-11-20T21:08:55.927Z,97674.59
2022-11-20T21:11:23.540Z,97668.28
2022-11-20T21:13:50.961Z,97673.97
2022-11-20T21:16:21.040Z,97673.16
2022-11-20T21:18:49.038Z,97680.50
2022-11-20T21:21:36.210Z,97669.09
2022-11-20T21:24:04.149Z,97674.41
2022-11-20T21:26:31.693Z,97671.13
2022-11-20T21:28:59.052Z,97669.47
2022-11-20T21:31:27.301Z,97663.56
2022-11-20T21:33:56.129Z,97666.22
2022-11-20T21:36:28.956Z,97676.81
2022-11-20T21:38:57.540Z,97671.94
2022-11-20T21:41:27.627Z,97675.38
2022-11-20T21:44:29.176Z,97676.63
2022-11-20T21:46:45.164Z,97674.16
2022-11-20T21:49:13.031Z,97676.00
2022-11-20T21:51:40.802Z,97676.81
2022-11-20T21:54:10.738Z,97667.41
2022-11-20T21:56:38.362Z,97667.41
2022-11-20T21:59:05.754Z,97665.81
2022-11-20T22:01:33.586Z,97670.28
2022-11-20T22:04:02.388Z,97665.19
2022-11-20T22:06:32.589Z,97672.31
2022-11-20T22:09:01.032Z,97669.88
2022-11-20T22:11:29.091Z,97668.22
2022-11-20T22:14:14.974Z,97666.59
2022-11-20T22:16:42.804Z,97667.59
2022-11-20T22:19:10.161Z,97680.06
2022-11-20T22:21:39.536Z,97680.84
2022-11-20T22:24:07.313Z,97688.19
2022-11-20T22:26:40.130Z,97691.88
2022-11-20T22:29:12.088Z,97691.88
2022-11-20T22:31:40.164Z,97687.56
2022-11-20T22:34:14.326Z,97688.59
2022-11-20T22:36:42.176Z,97680.03
2022-11-20T22:39:09.710Z,97680.03
2022-11-20T22:41:37.342Z,97683.72
2022-11-20T22:44:06.998Z,97682.06
2022-11-20T22:46:36.495Z,97675.16
2022-11-20T22:49:06.529Z,97673.50
2022-11-20T22:51:37.796Z,97677.19
2022-11-20T22:54:05.781Z,97686.13
2022-11-20T22:56:34.379Z,97690.63
2022-11-20T22:59:01.643Z,97697.75
2022-11-20T23:01:34.466Z,97703.25
2022-11-20T23:04:07.043Z,97697.16
2022-11-20T23:06:34.720Z,97700.78
2022-11-20T23:09:04.171Z,97704.47
2022-11-20T23:11:32.707Z,97686.09
2022-11-20T23:14:02.730Z,97687.94
2022-11-20T23:16:31.367Z,97687.34
2022-11-20T23:19:01.212Z,97691.81
2022-11-20T23:21:29.148Z,97697.94
2022-11-20T23:23:57.974Z,97696.31
2022-11-20T23:26:28.408Z,97693.84
2022-11-20T23:28:57.672Z,97700.38
2022-11-20T23:31:26.919Z,97704.63
2022-11-20T23:33:54.552Z,97692.41
2022-11-20T23:36:22.189Z,97695.06
2022-11-20T23:38:49.466Z,97685.47
2022-11-20T23:41:17.172Z,97682.81
2022-11-20T23:43:44.414Z,97682.00
2022-11-20T23:46:16.218Z,97679.53
2022-11-20T23:48:44.877Z,97690.16
2022-11-20T23:51:13.328Z,97681.56
2022-11-20T23:53:41.434Z,97674.66
2022-11-20T23:56:09.085Z,97667.69
2022-11-20T23:58:37.655Z,97678.31
